Bend, OR

11:35 AM PDT on August 29, 2016 (GMT -0700)
| | Change Station

Elev -9999 ft 0.00 °N, 0.00 °E | Updated

Clear
Clear
84 °F
Feels Like 84 °F
N
9
Wind Variable Wind from SW
Gusts 15 mph

Today
High -- | Low -- °F
--% Chance of Precip.
Yesterday
High -- | Low -- °F
Precip. -- in
Pressure 30.10 in
Visibility 10.0 miles
Clouds Clear
Dew Point 38 °F
Humidity 20%
Rainfall --
Snow Depth Not available.
6:25 AM 7:45 PM
Waning Crescent, 7% visible
METAR KBDN 291815Z AUTO 22005G10KT 10SM CLR 26/08 A3010 RMK AO2
Pressure 30.10 in
Visibility 10.0 miles
Clouds Clear
Dew Point 38 °F
Humidity 20%
Rainfall --
Snow Depth Not available.
6:25 AM 7:45 PM
Waning Crescent, 7% visible
METAR KBDN 291815Z AUTO 22005G10KT 10SM CLR 26/08 A3010 RMK AO2

10-Day Weather Forecast

Almanac

Astronomy

Aug. 29, 2016 Rise Set
Actual Time
Civil Twilight
Nautical Twilight
Astronomical Twilight
Moon
Length of Visible Light
Length of Day
Tomorrow will be .
, % of the Moon is Illuminated

Today's Extremes

State Highs State Lows

Community

WunderPhotos

Upload Photos

1,935,685 photos uploaded!

WunderBlog® & News

Nearby

Air Quality

  Air Quality AQ Index Pollutant
Not available.

Snow Depth

Station Depth Elevation

Earthquake Activity

City Distance Mag. Time & Date
Minimum magnitude displayed is 2.5.

Coastal Water Temperatures

Place Temperature

Stations

Nearby Weather Stations

Station Location Temp. Windchill Dew Point Humidity Wind Precip. Elev Updated Type
                   

Watches & Warnings

There are currently no watches in effect.